sensor_id;sensor_type;location;lat;lon;timestamp;pressure;altitude;pressure_sealevel;temperature;humidity
12868;BME280;33517;49.866;8.320;2023-08-20T00:00:30;100810.91;;;23.89;83.51
12868;BME280;33517;49.866;8.320;2023-08-20T00:03:23;100812.13;;;23.81;84.27
12868;BME280;33517;49.866;8.320;2023-08-20T00:06:15;100806.34;;;23.72;84.82
12868;BME280;33517;49.866;8.320;2023-08-20T00:09:08;100809.84;;;23.73;84.82
12868;BME280;33517;49.866;8.320;2023-08-20T00:12:00;100807.16;;;23.73;84.33
12868;BME280;33517;49.866;8.320;2023-08-20T00:14:55;100805.50;;;23.72;84.50
12868;BME280;33517;49.866;8.320;2023-08-20T00:17:47;100801.44;;;23.69;84.50
12868;BME280;33517;49.866;8.320;2023-08-20T00:20:40;100803.78;;;23.66;84.59
12868;BME280;33517;49.866;8.320;2023-08-20T00:23:32;100801.84;;;23.61;84.74
12868;BME280;33517;49.866;8.320;2023-08-20T00:26:26;100803.38;;;23.57;84.91
12868;BME280;33517;49.866;8.320;2023-08-20T00:29:18;100805.22;;;23.57;84.93
12868;BME280;33517;49.866;8.320;2023-08-20T00:32:10;100798.72;;;23.53;85.19
12868;BME280;33517;49.866;8.320;2023-08-20T00:35:02;100791.47;;;23.53;85.38
12868;BME280;33517;49.866;8.320;2023-08-20T00:37:55;100810.06;;;23.43;86.21
12868;BME280;33517;49.866;8.320;2023-08-20T00:40:46;100801.44;;;23.41;86.10
12868;BME280;33517;49.866;8.320;2023-08-20T00:43:40;100804.28;;;23.35;85.90
12868;BME280;33517;49.866;8.320;2023-08-20T00:46:32;100813.13;;;23.24;86.09
12868;BME280;33517;49.866;8.320;2023-08-20T00:49:24;100812.72;;;23.15;86.32
12868;BME280;33517;49.866;8.320;2023-08-20T00:52:16;100810.28;;;23.02;86.75
12868;BME280;33517;49.866;8.320;2023-08-20T00:55:10;100809.81;;;22.94;87.19
12868;BME280;33517;49.866;8.320;2023-08-20T00:58:03;100811.84;;;22.86;87.53
12868;BME280;33517;49.866;8.320;2023-08-20T01:00:57;100806.69;;;22.85;87.81
12868;BME280;33517;49.866;8.320;2023-08-20T01:03:49;100808.56;;;22.84;88.31
12868;BME280;33517;49.866;8.320;2023-08-20T01:06:46;100811.50;;;22.83;88.06
12868;BME280;33517;49.866;8.320;2023-08-20T01:09:49;100803.06;;;22.79;88.29
12868;BME280;33517;49.866;8.320;2023-08-20T01:12:43;100807.41;;;22.80;88.46
12868;BME280;33517;49.866;8.320;2023-08-20T01:15:35;100798.88;;;22.72;88.22
12868;BME280;33517;49.866;8.320;2023-08-20T01:18:28;100807.06;;;22.65;88.40
12868;BME280;33517;49.866;8.320;2023-08-20T01:21:29;100799.13;;;22.59;88.68
12868;BME280;33517;49.866;8.320;2023-08-20T01:24:38;100798.06;;;22.48;89.09
12868;BME280;33517;49.866;8.320;2023-08-20T01:27:50;100793.84;;;22.41;89.28
12868;BME280;33517;49.866;8.320;2023-08-20T01:30:45;100779.72;;;22.34;89.25
12868;BME280;33517;49.866;8.320;2023-08-20T01:33:38;100782.78;;;22.26;89.35
12868;BME280;33517;49.866;8.320;2023-08-20T01:36:30;100781.81;;;22.20;89.43
12868;BME280;33517;49.866;8.320;2023-08-20T01:39:22;100783.78;;;22.13;89.49
12868;BME280;33517;49.866;8.320;2023-08-20T01:42:15;100785.53;;;22.08;89.63
12868;BME280;33517;49.866;8.320;2023-08-20T01:45:07;100786.22;;;22.03;93.04
12868;BME280;33517;49.866;8.320;2023-08-20T01:48:01;100789.38;;;22.00;91.76
12868;BME280;33517;49.866;8.320;2023-08-20T01:50:53;100790.88;;;21.96;91.24
12868;BME280;33517;49.866;8.320;2023-08-20T01:53:44;100792.97;;;21.94;91.38
12868;BME280;33517;49.866;8.320;2023-08-20T01:56:36;100801.00;;;21.94;92.22
12868;BME280;33517;49.866;8.320;2023-08-20T01:59:28;100801.91;;;21.88;95.93
12868;BME280;33517;49.866;8.320;2023-08-20T02:02:20;100815.03;;;21.78;98.57
12868;BME280;33517;49.866;8.320;2023-08-20T02:05:13;100816.16;;;21.70;99.45
12868;BME280;33517;49.866;8.320;2023-08-20T02:08:05;100820.03;;;21.74;97.46
12868;BME280;33517;49.866;8.320;2023-08-20T02:11:01;100812.22;;;21.73;96.33
12868;BME280;33517;49.866;8.320;2023-08-20T02:13:53;100816.75;;;21.72;95.48
12868;BME280;33517;49.866;8.320;2023-08-20T02:16:46;100824.66;;;21.67;96.52
12868;BME280;33517;49.866;8.320;2023-08-20T02:19:38;100828.13;;;21.56;97.09
12868;BME280;33517;49.866;8.320;2023-08-20T02:22:31;100831.38;;;21.58;96.30
12868;BME280;33517;49.866;8.320;2023-08-20T02:25:24;100835.41;;;21.49;99.42
12868;BME280;33517;49.866;8.320;2023-08-20T02:28:17;100832.22;;;21.41;99.99
12868;BME280;33517;49.866;8.320;2023-08-20T02:31:08;100830.22;;;21.36;100.00
12868;BME280;33517;49.866;8.320;2023-08-20T02:34:00;100830.75;;;21.27;100.00
12868;BME280;33517;49.866;8.320;2023-08-20T02:36:52;100820.41;;;21.30;100.00
12868;BME280;33517;49.866;8.320;2023-08-20T02:39:46;100815.34;;;21.40;100.00
12868;BME280;33517;49.866;8.320;2023-08-20T02:42:37;100818.59;;;21.42;99.69
12868;BME280;33517;49.866;8.320;2023-08-20T02:45:29;100822.09;;;21.43;98.71
12868;BME280;33517;49.866;8.320;2023-08-20T02:48:22;100824.19;;;21.41;98.29
12868;BME280;33517;49.866;8.320;2023-08-20T02:51:17;100814.75;;;21.38;98.40
12868;BME280;33517;49.866;8.320;2023-08-20T02:54:09;100820.31;;;21.37;97.67
12868;BME280;33517;49.866;8.320;2023-08-20T02:57:02;100813.34;;;21.36;98.28
12868;BME280;33517;49.866;8.320;2023-08-20T02:59:54;100807.84;;;21.31;98.00
12868;BME280;33517;49.866;8.320;2023-08-20T03:02:46;100804.94;;;21.32;99.95
12868;BME280;33517;49.866;8.320;2023-08-20T03:05:38;100803.59;;;21.23;100.00
12868;BME280;33517;49.866;8.320;2023-08-20T03:08:30;100798.94;;;21.19;100.00
12868;BME280;33517;49.866;8.320;2023-08-20T03:11:22;100799.09;;;21.24;100.00
12868;BME280;33517;49.866;8.320;2023-08-20T03:14:15;100801.88;;;21.29;100.00
12868;BME280;33517;49.866;8.320;2023-08-20T03:17:07;100806.00;;;21.31;100.00
12868;BME280;33517;49.866;8.320;2023-08-20T03:20:00;100789.91;;;21.31;100.00
12868;BME280;33517;49.866;8.320;2023-08-20T03:22:52;100800.41;;;21.33;99.80
12868;BME280;33517;49.866;8.320;2023-08-20T03:25:44;100794.63;;;21.36;99.56
12868;BME280;33517;49.866;8.320;2023-08-20T03:28:36;100800.75;;;21.36;99.40
12868;BME280;33517;49.866;8.320;2023-08-20T03:31:30;100801.88;;;21.29;100.00
12868;BME280;33517;49.866;8.320;2023-08-20T03:34:22;100806.44;;;21.28;100.00
12868;BME280;33517;49.866;8.320;2023-08-20T03:37:13;100801.28;;;21.27;100.00
12868;BME280;33517;49.866;8.320;2023-08-20T03:40:06;100805.84;;;21.26;100.00
12868;BME280;33517;49.866;8.320;2023-08-20T03:42:58;100806.88;;;21.25;99.88
12868;BME280;33517;49.866;8.320;2023-08-20T03:45:51;100804.44;;;21.24;99.74
12868;BME280;33517;49.866;8.320;2023-08-20T03:48:44;100812.34;;;21.19;99.41
12868;BME280;33517;49.866;8.320;2023-08-20T03:51:36;100816.03;;;21.18;99.32
12868;BME280;33517;49.866;8.320;2023-08-20T03:54:28;100820.44;;;21.12;99.43
12868;BME280;33517;49.866;8.320;2023-08-20T03:57:20;100820.28;;;21.07;100.00
12868;BME280;33517;49.866;8.320;2023-08-20T04:00:13;100829.00;;;20.96;100.00
12868;BME280;33517;49.866;8.320;2023-08-20T04:03:05;100828.50;;;20.87;100.00
12868;BME280;33517;49.866;8.320;2023-08-20T04:05:58;100825.22;;;20.85;100.00
12868;BME280;33517;49.866;8.320;2023-08-20T04:08:50;100835.03;;;20.91;100.00
12868;BME280;33517;49.866;8.320;2023-08-20T04:11:42;100827.38;;;20.95;100.00
12868;BME280;33517;49.866;8.320;2023-08-20T04:14:34;100828.38;;;21.00;100.00
12868;BME280;33517;49.866;8.320;2023-08-20T04:17:26;100829.94;;;21.08;100.00
12868;BME280;33517;49.866;8.320;2023-08-20T04:20:18;100838.19;;;21.06;100.00
12868;BME280;33517;49.866;8.320;2023-08-20T04:23:11;100842.72;;;21.06;100.00
12868;BME280;33517;49.866;8.320;2023-08-20T04:26:03;100846.00;;;21.08;100.00
12868;BME280;33517;49.866;8.320;2023-08-20T04:28:55;100847.06;;;21.07;100.00
12868;BME280;33517;49.866;8.320;2023-08-20T04:31:47;100847.47;;;21.04;100.00
12868;BME280;33517;49.866;8.320;2023-08-20T04:34:39;100851.50;;;21.13;100.00
12868;BME280;33517;49.866;8.320;2023-08-20T04:37:31;100852.03;;;21.22;100.00
12868;BME280;33517;49.866;8.320;2023-08-20T04:40:24;100850.53;;;21.26;100.00
12868;BME280;33517;49.866;8.320;2023-08-20T04:43:16;100848.75;;;21.20;100.00
12868;BME280;33517;49.866;8.320;2023-08-20T04:46:08;100861.25;;;21.26;100.00
12868;BME280;33517;49.866;8.320;2023-08-20T04:49:00;100856.03;;;21.31;100.00
12868;BME280;33517;49.866;8.320;2023-08-20T04:51:52;100854.03;;;21.26;100.00
12868;BME280;33517;49.866;8.320;2023-08-20T04:54:43;100866.06;;;21.35;100.00
12868;BME280;33517;49.866;8.320;2023-08-20T04:57:37;100864.72;;;21.44;100.00
12868;BME280;33517;49.866;8.320;2023-08-20T05:00:29;100859.13;;;21.46;100.00
12868;BME280;33517;49.866;8.320;2023-08-20T05:03:20;100861.38;;;21.49;100.00
12868;BME280;33517;49.866;8.320;2023-08-20T05:06:13;100870.00;;;21.51;100.00
12868;BME280;33517;49.866;8.320;2023-08-20T05:09:04;100873.25;;;21.71;100.00
12868;BME280;33517;49.866;8.320;2023-08-20T05:11:56;100883.38;;;21.87;100.00
12868;BME280;33517;49.866;8.320;2023-08-20T05:14:49;100879.94;;;22.10;100.00
12868;BME280;33517;49.866;8.320;2023-08-20T05:17:41;100871.03;;;22.27;100.00
12868;BME280;33517;49.866;8.320;2023-08-20T05:20:33;100880.28;;;22.43;99.92
12868;BME280;33517;49.866;8.320;2023-08-20T05:23:25;100878.56;;;22.60;99.00
12868;BME280;33517;49.866;8.320;2023-08-20T05:26:17;100883.22;;;22.76;98.74
12868;BME280;33517;49.866;8.320;2023-08-20T05:29:09;100895.13;;;22.92;98.29
12868;BME280;33517;49.866;8.320;2023-08-20T05:32:02;100899.00;;;23.07;97.75
12868;BME280;33517;49.866;8.320;2023-08-20T05:34:54;100897.00;;;23.14;97.51
12868;BME280;33517;49.866;8.320;2023-08-20T05:37:46;100900.47;;;23.26;97.17
12868;BME280;33517;49.866;8.320;2023-08-20T05:40:38;100902.25;;;23.44;96.56
12868;BME280;33517;49.866;8.320;2023-08-20T05:43:30;100897.75;;;23.89;96.70
12868;BME280;33517;49.866;8.320;2023-08-20T05:46:22;100899.94;;;24.65;94.07
12868;BME280;33517;49.866;8.320;2023-08-20T05:49:15;100898.34;;;27.00;84.07
12868;BME280;33517;49.866;8.320;2023-08-20T05:52:07;100904.56;;;28.50;75.94
12868;BME280;33517;49.866;8.320;2023-08-20T05:54:59;100915.69;;;29.67;70.87
12868;BME280;33517;49.866;8.320;2023-08-20T05:57:51;100918.00;;;30.43;68.05
12868;BME280;33517;49.866;8.320;2023-08-20T06:00:43;100926.84;;;30.15;67.13
12868;BME280;33517;49.866;8.320;2023-08-20T06:03:35;100916.16;;;28.25;73.96
12868;BME280;33517;49.866;8.320;2023-08-20T06:06:28;100907.91;;;26.76;77.67
12868;BME280;33517;49.866;8.320;2023-08-20T06:09:20;100909.84;;;26.22;80.07
12868;BME280;33517;49.866;8.320;2023-08-20T06:12:12;100904.66;;;25.68;81.42
12868;BME280;33517;49.866;8.320;2023-08-20T06:15:05;100909.94;;;28.30;73.42
12868;BME280;33517;49.866;8.320;2023-08-20T06:17:56;100908.47;;;30.74;63.54
12868;BME280;33517;49.866;8.320;2023-08-20T06:20:48;100921.41;;;32.05;59.10
12868;BME280;33517;49.866;8.320;2023-08-20T06:23:42;100913.50;;;33.32;56.75
12868;BME280;33517;49.866;8.320;2023-08-20T06:26:34;100917.88;;;34.10;54.59
12868;BME280;33517;49.866;8.320;2023-08-20T06:29:26;100922.66;;;34.62;53.24
12868;BME280;33517;49.866;8.320;2023-08-20T06:32:17;100922.88;;;35.05;52.37
12868;BME280;33517;49.866;8.320;2023-08-20T06:35:09;100933.31;;;35.90;49.52
12868;BME280;33517;49.866;8.320;2023-08-20T06:38:01;100942.03;;;36.60;48.49
12868;BME280;33517;49.866;8.320;2023-08-20T06:40:55;100939.97;;;36.57;46.68
12868;BME280;33517;49.866;8.320;2023-08-20T06:43:47;100940.72;;;37.88;44.08
12868;BME280;33517;49.866;8.320;2023-08-20T06:46:40;100937.72;;;38.76;43.21
12868;BME280;33517;49.866;8.320;2023-08-20T06:49:32;100945.75;;;39.25;42.82
12868;BME280;33517;49.866;8.320;2023-08-20T06:52:24;100950.47;;;39.61;41.20
12868;BME280;33517;49.866;8.320;2023-08-20T06:55:16;100951.44;;;40.05;40.16
12868;BME280;33517;49.866;8.320;2023-08-20T06:58:09;100945.72;;;41.12;39.10
12868;BME280;33517;49.866;8.320;2023-08-20T07:01:01;100945.44;;;40.42;39.36
12868;BME280;33517;49.866;8.320;2023-08-20T07:03:58;100951.25;;;40.81;37.96
12868;BME280;33517;49.866;8.320;2023-08-20T07:06:50;100953.19;;;41.74;37.15
12868;BME280;33517;49.866;8.320;2023-08-20T07:09:43;100954.50;;;41.29;36.38
12868;BME280;33517;49.866;8.320;2023-08-20T07:12:35;100940.75;;;36.66;41.86
12868;BME280;33517;49.866;8.320;2023-08-20T07:15:29;100942.78;;;35.28;45.14
12868;BME280;33517;49.866;8.320;2023-08-20T07:18:21;100944.16;;;37.85;40.60
12868;BME280;33517;49.866;8.320;2023-08-20T07:21:13;100941.56;;;39.92;38.28
12868;BME280;33517;49.866;8.320;2023-08-20T07:24:05;100941.38;;;40.24;36.74
12868;BME280;33517;49.866;8.320;2023-08-20T07:26:57;100951.69;;;40.83;35.57
12868;BME280;33517;49.866;8.320;2023-08-20T07:29:51;100951.28;;;41.43;35.10
12868;BME280;33517;49.866;8.320;2023-08-20T07:32:45;100945.47;;;42.17;34.76
12868;BME280;33517;49.866;8.320;2023-08-20T07:35:36;100952.69;;;41.68;34.47
12868;BME280;33517;49.866;8.320;2023-08-20T07:38:28;100958.34;;;42.29;34.89
12868;BME280;33517;49.866;8.320;2023-08-20T07:41:21;100956.78;;;42.47;32.75
12868;BME280;33517;49.866;8.320;2023-08-20T07:44:13;100960.53;;;42.01;34.06
12868;BME280;33517;49.866;8.320;2023-08-20T07:47:05;100964.09;;;43.00;33.22
12868;BME280;33517;49.866;8.320;2023-08-20T07:49:59;100961.84;;;42.83;33.17
12868;BME280;33517;49.866;8.320;2023-08-20T07:52:50;100958.44;;;42.93;32.40
12868;BME280;33517;49.866;8.320;2023-08-20T07:55:42;100967.78;;;43.31;32.61
12868;BME280;33517;49.866;8.320;2023-08-20T07:58:34;100954.78;;;43.87;31.72
12868;BME280;33517;49.866;8.320;2023-08-20T08:01:26;100956.28;;;43.55;31.45
12868;BME280;33517;49.866;8.320;2023-08-20T08:04:18;100950.44;;;42.88;31.63
12868;BME280;33517;49.866;8.320;2023-08-20T08:07:11;100956.09;;;42.95;31.64
12868;BME280;33517;49.866;8.320;2023-08-20T08:10:04;100960.25;;;43.54;30.93
12868;BME280;33517;49.866;8.320;2023-08-20T08:12:55;100957.50;;;43.83;30.03
12868;BME280;33517;49.866;8.320;2023-08-20T08:15:48;100964.19;;;43.79;30.51
12868;BME280;33517;49.866;8.320;2023-08-20T08:18:40;100964.69;;;44.47;29.48
12868;BME280;33517;49.866;8.320;2023-08-20T08:21:32;100964.28;;;44.79;29.26
12868;BME280;33517;49.866;8.320;2023-08-20T08:24:25;100963.50;;;44.82;29.00
12868;BME280;33517;49.866;8.320;2023-08-20T08:27:17;100960.81;;;45.39;28.64
12868;BME280;33517;49.866;8.320;2023-08-20T08:30:09;100968.28;;;45.25;28.55
12868;BME280;33517;49.866;8.320;2023-08-20T08:33:01;100972.22;;;45.78;29.65
12868;BME280;33517;49.866;8.320;2023-08-20T08:35:53;100972.97;;;46.58;28.06
12868;BME280;33517;49.866;8.320;2023-08-20T08:38:45;100981.69;;;46.38;27.58
12868;BME280;33517;49.866;8.320;2023-08-20T08:41:38;100974.28;;;45.34;28.67
12868;BME280;33517;49.866;8.320;2023-08-20T08:44:32;100973.50;;;45.37;28.21
12868;BME280;33517;49.866;8.320;2023-08-20T08:47:24;100966.47;;;45.03;28.79
12868;BME280;33517;49.866;8.320;2023-08-20T08:50:17;100971.06;;;45.25;28.82
12868;BME280;33517;49.866;8.320;2023-08-20T08:53:10;100975.16;;;45.99;27.60
12868;BME280;33517;49.866;8.320;2023-08-20T08:56:02;100971.13;;;45.90;28.50
12868;BME280;33517;49.866;8.320;2023-08-20T08:58:57;100975.81;;;45.82;27.22
12868;BME280;33517;49.866;8.320;2023-08-20T09:01:49;100972.63;;;45.80;27.27
12868;BME280;33517;49.866;8.320;2023-08-20T09:04:41;100977.16;;;45.48;27.46
12868;BME280;33517;49.866;8.320;2023-08-20T09:07:33;100978.69;;;45.38;28.27
12868;BME280;33517;49.866;8.320;2023-08-20T09:10:28;100976.91;;;46.42;27.50
12868;BME280;33517;49.866;8.320;2023-08-20T09:13:22;100985.44;;;47.38;25.83
12868;BME280;33517;49.866;8.320;2023-08-20T09:16:16;100972.63;;;46.63;26.73
12868;BME280;33517;49.866;8.320;2023-08-20T09:19:07;100971.34;;;46.42;26.45
12868;BME280;33517;49.866;8.320;2023-08-20T09:21:59;100964.66;;;46.68;26.64
12868;BME280;33517;49.866;8.320;2023-08-20T09:24:53;100963.88;;;46.92;26.44
12868;BME280;33517;49.866;8.320;2023-08-20T09:27:45;100963.06;;;46.74;26.63
12868;BME280;33517;49.866;8.320;2023-08-20T09:30:37;100963.09;;;47.48;25.01
12868;BME280;33517;49.866;8.320;2023-08-20T09:33:31;100966.84;;;48.28;25.10
12868;BME280;33517;49.866;8.320;2023-08-20T09:36:30;100975.56;;;48.37;24.90
12868;BME280;33517;49.866;8.320;2023-08-20T09:39:22;100971.38;;;48.80;24.95
12868;BME280;33517;49.866;8.320;2023-08-20T09:42:15;100973.00;;;47.81;25.37
12868;BME280;33517;49.866;8.320;2023-08-20T09:45:08;100969.84;;;47.75;25.78
12868;BME280;33517;49.866;8.320;2023-08-20T09:48:04;100974.78;;;48.44;24.66
12868;BME280;33517;49.866;8.320;2023-08-20T09:51:00;100982.34;;;49.05;24.03
12868;BME280;33517;49.866;8.320;2023-08-20T09:54:10;100977.34;;;47.96;25.02
12868;BME280;33517;49.866;8.320;2023-08-20T09:57:07;100968.69;;;47.13;25.07
12868;BME280;33517;49.866;8.320;2023-08-20T10:00:03;100971.88;;;47.15;23.98
12868;BME280;33517;49.866;8.320;2023-08-20T10:03:00;100970.97;;;47.92;24.30
12868;BME280;33517;49.866;8.320;2023-08-20T10:05:52;100965.47;;;47.32;24.59
12868;BME280;33517;49.866;8.320;2023-08-20T10:08:47;100968.28;;;47.32;25.04
12868;BME280;33517;49.866;8.320;2023-08-20T10:11:40;100969.75;;;47.93;24.49
12868;BME280;33517;49.866;8.320;2023-08-20T10:14:32;100970.81;;;48.34;23.03
12868;BME280;33517;49.866;8.320;2023-08-20T10:17:24;100964.69;;;47.28;24.18
12868;BME280;33517;49.866;8.320;2023-08-20T10:20:17;100959.91;;;47.11;24.40
12868;BME280;33517;49.866;8.320;2023-08-20T10:23:11;100958.72;;;47.01;24.77
12868;BME280;33517;49.866;8.320;2023-08-20T10:26:08;100963.09;;;47.38;24.96
12868;BME280;33517;49.866;8.320;2023-08-20T10:32:46;100954.34;;;47.00;24.76
12868;BME280;33517;49.866;8.320;2023-08-20T10:35:47;100960.31;;;47.34;24.07
12868;BME280;33517;49.866;8.320;2023-08-20T10:38:40;100960.03;;;48.40;23.44
12868;BME280;33517;49.866;8.320;2023-08-20T10:41:33;100959.69;;;48.89;23.39
12868;BME280;33517;49.866;8.320;2023-08-20T10:44:25;100962.66;;;47.74;23.86
12868;BME280;33517;49.866;8.320;2023-08-20T10:47:17;100952.66;;;47.84;24.21
12868;BME280;33517;49.866;8.320;2023-08-20T10:50:10;100955.22;;;48.44;23.31
12868;BME280;33517;49.866;8.320;2023-08-20T10:53:03;100956.69;;;47.65;24.06
12868;BME280;33517;49.866;8.320;2023-08-20T10:56:07;100954.25;;;47.88;23.87
12868;BME280;33517;49.866;8.320;2023-08-20T10:59:05;100953.06;;;47.68;23.74
12868;BME280;33517;49.866;8.320;2023-08-20T11:01:58;100948.44;;;48.38;22.56
12868;BME280;33517;49.866;8.320;2023-08-20T11:04:51;100942.38;;;47.53;23.90
12868;BME280;33517;49.866;8.320;2023-08-20T11:07:44;100950.66;;;47.88;24.29
12868;BME280;33517;49.866;8.320;2023-08-20T11:10:37;100957.03;;;48.68;23.60
12868;BME280;33517;49.866;8.320;2023-08-20T11:13:32;100942.31;;;47.74;24.43
12868;BME280;33517;49.866;8.320;2023-08-20T11:16:26;100944.88;;;48.41;23.26
12868;BME280;33517;49.866;8.320;2023-08-20T11:19:19;100947.06;;;48.67;22.81
12868;BME280;33517;49.866;8.320;2023-08-20T11:22:11;100942.75;;;47.51;24.30
12868;BME280;33517;49.866;8.320;2023-08-20T11:25:05;100938.75;;;47.73;24.31
12868;BME280;33517;49.866;8.320;2023-08-20T11:27:57;100938.00;;;47.09;24.50
12868;BME280;33517;49.866;8.320;2023-08-20T11:30:49;100940.94;;;48.24;23.71
12868;BME280;33517;49.866;8.320;2023-08-20T11:33:42;100944.63;;;47.96;23.78
12868;BME280;33517;49.866;8.320;2023-08-20T11:36:34;100943.59;;;47.34;24.29
12868;BME280;33517;49.866;8.320;2023-08-20T11:39:28;100943.06;;;46.33;24.35
12868;BME280;33517;49.866;8.320;2023-08-20T11:42:22;100940.81;;;47.09;23.76
12868;BME280;33517;49.866;8.320;2023-08-20T11:45:14;100935.63;;;46.80;23.84
12868;BME280;33517;49.866;8.320;2023-08-20T11:48:08;100936.84;;;47.10;23.30
12868;BME280;33517;49.866;8.320;2023-08-20T11:51:02;100935.59;;;47.18;22.89
12868;BME280;33517;49.866;8.320;2023-08-20T11:53:54;100928.44;;;46.86;23.15
12868;BME280;33517;49.866;8.320;2023-08-20T11:56:47;100936.69;;;46.33;22.88
12868;BME280;33517;49.866;8.320;2023-08-20T11:59:39;100935.19;;;47.55;22.65
12868;BME280;33517;49.866;8.320;2023-08-20T12:02:31;100934.41;;;46.88;23.38
12868;BME280;33517;49.866;8.320;2023-08-20T12:05:26;100933.59;;;47.51;22.99
12868;BME280;33517;49.866;8.320;2023-08-20T12:08:19;100935.06;;;47.97;22.87
12868;BME280;33517;49.866;8.320;2023-08-20T12:11:12;100926.47;;;47.39;23.08
12868;BME280;33517;49.866;8.320;2023-08-20T12:14:04;100926.00;;;47.55;23.32
12868;BME280;33517;49.866;8.320;2023-08-20T12:16:56;100922.09;;;47.10;22.88
12868;BME280;33517;49.866;8.320;2023-08-20T12:19:48;100911.72;;;46.75;23.61
12868;BME280;33517;49.866;8.320;2023-08-20T12:22:40;100914.50;;;47.07;22.79
12868;BME280;33517;49.866;8.320;2023-08-20T12:25:34;100922.69;;;46.08;23.33
12868;BME280;33517;49.866;8.320;2023-08-20T12:28:27;100913.50;;;46.04;23.71
12868;BME280;33517;49.866;8.320;2023-08-20T12:31:19;100912.53;;;47.00;23.01
12868;BME280;33517;49.866;8.320;2023-08-20T12:34:11;100912.88;;;47.48;22.40
12868;BME280;33517;49.866;8.320;2023-08-20T12:37:02;100898.56;;;46.62;23.22
12868;BME280;33517;49.866;8.320;2023-08-20T12:39:55;100900.00;;;46.06;23.71
12868;BME280;33517;49.866;8.320;2023-08-20T12:42:49;100904.16;;;46.86;23.11
12868;BME280;33517;49.866;8.320;2023-08-20T12:45:41;100896.97;;;47.17;22.45
12868;BME280;33517;49.866;8.320;2023-08-20T12:48:32;100896.59;;;47.08;23.09
12868;BME280;33517;49.866;8.320;2023-08-20T12:51:24;100897.34;;;46.52;23.59
12868;BME280;33517;49.866;8.320;2023-08-20T12:54:18;100890.00;;;45.91;23.69
12868;BME280;33517;49.866;8.320;2023-08-20T12:57:15;100881.03;;;46.54;23.43
12868;BME280;33517;49.866;8.320;2023-08-20T13:00:16;100880.59;;;46.34;23.53
12868;BME280;33517;49.866;8.320;2023-08-20T13:03:09;100885.69;;;46.11;24.03
12868;BME280;33517;49.866;8.320;2023-08-20T13:06:01;100875.75;;;46.07;23.82
12868;BME280;33517;49.866;8.320;2023-08-20T13:08:54;100878.50;;;45.24;23.41
12868;BME280;33517;49.866;8.320;2023-08-20T13:11:49;100873.53;;;43.86;25.30
12868;BME280;33517;49.866;8.320;2023-08-20T13:14:43;100867.03;;;43.20;26.20
12868;BME280;33517;49.866;8.320;2023-08-20T13:17:38;100868.75;;;41.26;28.19
12868;BME280;33517;49.866;8.320;2023-08-20T13:20:30;100860.53;;;39.56;29.72
12868;BME280;33517;49.866;8.320;2023-08-20T13:23:22;100857.91;;;38.31;31.25
12868;BME280;33517;49.866;8.320;2023-08-20T13:26:14;100857.06;;;37.77;32.40
12868;BME280;33517;49.866;8.320;2023-08-20T13:29:06;100857.81;;;37.07;32.81
12868;BME280;33517;49.866;8.320;2023-08-20T13:31:59;100855.19;;;36.73;33.47
12868;BME280;33517;49.866;8.320;2023-08-20T13:34:52;100856.81;;;36.65;33.57
12868;BME280;33517;49.866;8.320;2023-08-20T13:37:44;100863.84;;;36.46;34.78
12868;BME280;33517;49.866;8.320;2023-08-20T13:40:36;100854.50;;;35.95;35.88
12868;BME280;33517;49.866;8.320;2023-08-20T13:43:28;100857.22;;;35.78;35.25
12868;BME280;33517;49.866;8.320;2023-08-20T13:46:20;100852.22;;;35.55;36.64
12868;BME280;33517;49.866;8.320;2023-08-20T13:49:12;100848.09;;;35.27;35.94
12868;BME280;33517;49.866;8.320;2023-08-20T13:52:06;100850.69;;;35.23;35.69
12868;BME280;33517;49.866;8.320;2023-08-20T13:54:59;100844.25;;;35.36;35.80
12868;BME280;33517;49.866;8.320;2023-08-20T13:57:51;100842.63;;;35.27;36.31
12868;BME280;33517;49.866;8.320;2023-08-20T14:00:43;100839.78;;;34.92;36.49
12868;BME280;33517;49.866;8.320;2023-08-20T14:03:35;100835.50;;;34.78;36.64
12868;BME280;33517;49.866;8.320;2023-08-20T14:06:27;100845.59;;;34.69;36.71
12868;BME280;33517;49.866;8.320;2023-08-20T14:09:21;100838.22;;;34.69;37.06
12868;BME280;33517;49.866;8.320;2023-08-20T14:12:13;100839.38;;;34.77;36.84
12868;BME280;33517;49.866;8.320;2023-08-20T14:15:06;100832.97;;;34.81;37.67
12868;BME280;33517;49.866;8.320;2023-08-20T14:17:58;100839.03;;;34.70;37.41
12868;BME280;33517;49.866;8.320;2023-08-20T14:20:52;100827.31;;;34.47;37.69
12868;BME280;33517;49.866;8.320;2023-08-20T14:23:44;100825.59;;;34.29;38.12
12868;BME280;33517;49.866;8.320;2023-08-20T14:26:37;100829.06;;;34.43;38.09
12868;BME280;33517;49.866;8.320;2023-08-20T14:29:29;100826.13;;;34.39;37.99
12868;BME280;33517;49.866;8.320;2023-08-20T14:32:21;100820.38;;;34.41;37.97
12868;BME280;33517;49.866;8.320;2023-08-20T14:35:13;100823.88;;;34.42;38.58
12868;BME280;33517;49.866;8.320;2023-08-20T14:38:05;100828.56;;;34.19;38.77
12868;BME280;33517;49.866;8.320;2023-08-20T14:40:59;100823.53;;;33.90;38.98
12868;BME280;33517;49.866;8.320;2023-08-20T14:43:53;100816.81;;;33.96;38.88
12868;BME280;33517;49.866;8.320;2023-08-20T14:46:45;100808.09;;;34.08;39.00
12868;BME280;33517;49.866;8.320;2023-08-20T14:49:37;100809.41;;;34.10;39.02
12868;BME280;33517;49.866;8.320;2023-08-20T14:52:29;100808.09;;;34.08;39.30
12868;BME280;33517;49.866;8.320;2023-08-20T14:55:21;100804.91;;;33.92;39.30
12868;BME280;33517;49.866;8.320;2023-08-20T14:58:13;100806.41;;;33.98;39.57
12868;BME280;33517;49.866;8.320;2023-08-20T15:01:07;100807.88;;;33.82;39.71
12868;BME280;33517;49.866;8.320;2023-08-20T15:03:59;100800.84;;;33.68;40.40